sensor_id;sensor_type;location;lat;lon;timestamp;P1;durP1;ratioP1;P2;durP2;ratioP2
13566;SDS011;6855;48.112;11.298;2023-01-13T00:00:49;0.57;;;0.53;;
13566;SDS011;6855;48.112;11.298;2023-01-13T00:03:16;5.83;;;1.00;;
13566;SDS011;6855;48.112;11.298;2023-01-13T00:05:44;1.53;;;0.70;;
13566;SDS011;6855;48.112;11.298;2023-01-13T00:08:12;1.87;;;0.77;;
13566;SDS011;6855;48.112;11.298;2023-01-13T00:10:39;1.37;;;0.70;;
13566;SDS011;6855;48.112;11.298;2023-01-13T00:13:08;1.13;;;0.60;;
13566;SDS011;6855;48.112;11.298;2023-01-13T00:15:35;2.20;;;0.77;;
13566;SDS011;6855;48.112;11.298;2023-01-13T00:18:02;0.60;;;0.50;;
13566;SDS011;6855;48.112;11.298;2023-01-13T00:20:29;2.50;;;0.60;;
13566;SDS011;6855;48.112;11.298;2023-01-13T00:22:56;5.10;;;0.87;;
13566;SDS011;6855;48.112;11.298;2023-01-13T00:25:24;1.53;;;0.63;;
13566;SDS011;6855;48.112;11.298;2023-01-13T00:27:51;1.77;;;0.70;;
13566;SDS011;6855;48.112;11.298;2023-01-13T00:30:19;1.10;;;0.63;;
13566;SDS011;6855;48.112;11.298;2023-01-13T00:32:47;2.30;;;0.80;;
13566;SDS011;6855;48.112;11.298;2023-01-13T00:35:14;4.03;;;0.70;;
13566;SDS011;6855;48.112;11.298;2023-01-13T00:37:41;1.13;;;0.50;;
13566;SDS011;6855;48.112;11.298;2023-01-13T00:40:09;0.60;;;0.50;;
13566;SDS011;6855;48.112;11.298;2023-01-13T00:42:36;3.43;;;0.60;;
13566;SDS011;6855;48.112;11.298;2023-01-13T00:45:22;1.33;;;0.60;;
13566;SDS011;6855;48.112;11.298;2023-01-13T00:47:49;1.20;;;0.70;;
13566;SDS011;6855;48.112;11.298;2023-01-13T00:50:17;0.50;;;0.50;;
13566;SDS011;6855;48.112;11.298;2023-01-13T00:52:44;0.97;;;0.50;;
13566;SDS011;6855;48.112;11.298;2023-01-13T00:55:11;1.53;;;0.67;;
13566;SDS011;6855;48.112;11.298;2023-01-13T00:57:38;1.50;;;0.60;;
13566;SDS011;6855;48.112;11.298;2023-01-13T01:00:06;1.33;;;0.57;;
13566;SDS011;6855;48.112;11.298;2023-01-13T01:02:35;0.63;;;0.50;;
13566;SDS011;6855;48.112;11.298;2023-01-13T01:05:02;4.00;;;0.50;;
13566;SDS011;6855;48.112;11.298;2023-01-13T01:07:29;3.23;;;0.60;;
13566;SDS011;6855;48.112;11.298;2023-01-13T01:09:56;0.50;;;0.40;;
13566;SDS011;6855;48.112;11.298;2023-01-13T01:12:23;2.97;;;0.90;;
13566;SDS011;6855;48.112;11.298;2023-01-13T01:14:50;1.17;;;0.73;;
13566;SDS011;6855;48.112;11.298;2023-01-13T01:17:18;0.50;;;0.47;;
13566;SDS011;6855;48.112;11.298;2023-01-13T01:19:46;1.23;;;0.60;;
13566;SDS011;6855;48.112;11.298;2023-01-13T01:22:14;2.03;;;0.60;;
13566;SDS011;6855;48.112;11.298;2023-01-13T01:24:41;0.80;;;0.60;;
13566;SDS011;6855;48.112;11.298;2023-01-13T01:27:08;0.63;;;0.50;;
13566;SDS011;6855;48.112;11.298;2023-01-13T01:29:35;0.73;;;0.47;;
13566;SDS011;6855;48.112;11.298;2023-01-13T01:32:02;0.67;;;0.50;;
13566;SDS011;6855;48.112;11.298;2023-01-13T01:34:30;0.60;;;0.57;;
13566;SDS011;6855;48.112;11.298;2023-01-13T01:36:58;0.67;;;0.60;;
13566;SDS011;6855;48.112;11.298;2023-01-13T01:39:25;1.07;;;0.60;;
13566;SDS011;6855;48.112;11.298;2023-01-13T01:41:53;1.00;;;0.57;;
13566;SDS011;6855;48.112;11.298;2023-01-13T01:44:55;0.80;;;0.50;;
13566;SDS011;6855;48.112;11.298;2023-01-13T01:47:24;0.60;;;0.50;;
13566;SDS011;6855;48.112;11.298;2023-01-13T01:49:52;1.37;;;0.50;;
13566;SDS011;6855;48.112;11.298;2023-01-13T01:52:22;1.60;;;0.60;;
13566;SDS011;6855;48.112;11.298;2023-01-13T01:54:51;0.93;;;0.60;;
13566;SDS011;6855;48.112;11.298;2023-01-13T01:57:22;1.30;;;0.60;;
13566;SDS011;6855;48.112;11.298;2023-01-13T01:59:49;1.00;;;0.60;;
13566;SDS011;6855;48.112;11.298;2023-01-13T02:02:16;1.17;;;0.60;;
13566;SDS011;6855;48.112;11.298;2023-01-13T02:04:45;1.33;;;0.50;;
13566;SDS011;6855;48.112;11.298;2023-01-13T02:07:15;0.50;;;0.50;;
13566;SDS011;6855;48.112;11.298;2023-01-13T02:09:44;1.10;;;0.53;;
13566;SDS011;6855;48.112;11.298;2023-01-13T02:12:11;1.47;;;0.60;;
13566;SDS011;6855;48.112;11.298;2023-01-13T02:14:58;0.83;;;0.50;;
13566;SDS011;6855;48.112;11.298;2023-01-13T02:17:31;2.30;;;0.50;;
13566;SDS011;6855;48.112;11.298;2023-01-13T02:26:05;0.50;;;0.50;;
13566;SDS011;6855;48.112;11.298;2023-01-13T02:28:45;0.70;;;0.60;;
13566;SDS011;6855;48.112;11.298;2023-01-13T02:31:30;0.70;;;0.50;;
13566;SDS011;6855;48.112;11.298;2023-01-13T02:34:08;1.07;;;0.60;;
13566;SDS011;6855;48.112;11.298;2023-01-13T02:36:37;1.23;;;0.60;;
13566;SDS011;6855;48.112;11.298;2023-01-13T02:39:08;2.33;;;0.73;;
13566;SDS011;6855;48.112;11.298;2023-01-13T02:41:37;0.67;;;0.47;;
13566;SDS011;6855;48.112;11.298;2023-01-13T02:44:24;1.63;;;0.60;;
13566;SDS011;6855;48.112;11.298;2023-01-13T02:46:54;0.90;;;0.60;;
13566;SDS011;6855;48.112;11.298;2023-01-13T02:49:24;0.80;;;0.60;;
13566;SDS011;6855;48.112;11.298;2023-01-13T02:51:54;2.80;;;0.60;;
13566;SDS011;6855;48.112;11.298;2023-01-13T02:54:25;0.67;;;0.50;;
13566;SDS011;6855;48.112;11.298;2023-01-13T02:56:54;1.57;;;0.53;;
13566;SDS011;6855;48.112;11.298;2023-01-13T02:59:21;0.87;;;0.53;;
13566;SDS011;6855;48.112;11.298;2023-01-13T03:01:50;0.70;;;0.50;;
13566;SDS011;6855;48.112;11.298;2023-01-13T03:07:03;0.63;;;0.60;;
13566;SDS011;6855;48.112;11.298;2023-01-13T03:09:35;0.50;;;0.40;;
13566;SDS011;6855;48.112;11.298;2023-01-13T03:12:05;0.70;;;0.50;;
13566;SDS011;6855;48.112;11.298;2023-01-13T03:14:37;0.60;;;0.60;;
13566;SDS011;6855;48.112;11.298;2023-01-13T03:17:14;0.90;;;0.60;;
13566;SDS011;6855;48.112;11.298;2023-01-13T03:19:43;0.70;;;0.50;;
13566;SDS011;6855;48.112;11.298;2023-01-13T03:22:16;0.50;;;0.50;;
13566;SDS011;6855;48.112;11.298;2023-01-13T03:24:46;0.50;;;0.50;;
13566;SDS011;6855;48.112;11.298;2023-01-13T03:27:14;0.50;;;0.43;;
13566;SDS011;6855;48.112;11.298;2023-01-13T03:29:45;0.60;;;0.50;;
13566;SDS011;6855;48.112;11.298;2023-01-13T03:32:14;0.90;;;0.50;;
13566;SDS011;6855;48.112;11.298;2023-01-13T03:34:44;0.70;;;0.50;;
13566;SDS011;6855;48.112;11.298;2023-01-13T03:37:13;0.60;;;0.50;;
13566;SDS011;6855;48.112;11.298;2023-01-13T03:39:46;0.90;;;0.50;;
13566;SDS011;6855;48.112;11.298;2023-01-13T03:42:16;1.60;;;0.80;;
13566;SDS011;6855;48.112;11.298;2023-01-13T03:44:45;0.97;;;0.50;;
13566;SDS011;6855;48.112;11.298;2023-01-13T03:47:14;1.00;;;0.50;;
13566;SDS011;6855;48.112;11.298;2023-01-13T03:49:45;0.70;;;0.60;;
13566;SDS011;6855;48.112;11.298;2023-01-13T03:52:14;2.53;;;0.70;;
13566;SDS011;6855;48.112;11.298;2023-01-13T03:54:45;0.80;;;0.53;;
13566;SDS011;6855;48.112;11.298;2023-01-13T03:57:17;1.50;;;1.03;;
13566;SDS011;6855;48.112;11.298;2023-01-13T03:59:46;0.83;;;0.63;;
13566;SDS011;6855;48.112;11.298;2023-01-13T04:02:16;1.10;;;0.80;;
13566;SDS011;6855;48.112;11.298;2023-01-13T04:04:48;0.50;;;0.40;;
13566;SDS011;6855;48.112;11.298;2023-01-13T04:07:19;2.20;;;0.50;;
13566;SDS011;6855;48.112;11.298;2023-01-13T04:09:53;0.50;;;0.40;;
13566;SDS011;6855;48.112;11.298;2023-01-13T04:12:23;1.80;;;0.50;;
13566;SDS011;6855;48.112;11.298;2023-01-13T04:14:52;1.07;;;0.60;;
13566;SDS011;6855;48.112;11.298;2023-01-13T04:17:19;0.60;;;0.50;;
13566;SDS011;6855;48.112;11.298;2023-01-13T04:19:48;0.60;;;0.50;;
13566;SDS011;6855;48.112;11.298;2023-01-13T04:22:15;0.83;;;0.50;;
13566;SDS011;6855;48.112;11.298;2023-01-13T04:24:42;0.67;;;0.50;;
13566;SDS011;6855;48.112;11.298;2023-01-13T04:27:11;0.70;;;0.60;;
13566;SDS011;6855;48.112;11.298;2023-01-13T04:29:38;3.80;;;0.77;;
13566;SDS011;6855;48.112;11.298;2023-01-13T04:32:05;1.90;;;0.50;;
13566;SDS011;6855;48.112;11.298;2023-01-13T04:34:32;0.50;;;0.47;;
13566;SDS011;6855;48.112;11.298;2023-01-13T04:37:00;1.57;;;0.60;;
13566;SDS011;6855;48.112;11.298;2023-01-13T04:39:27;0.70;;;0.60;;
13566;SDS011;6855;48.112;11.298;2023-01-13T04:41:54;0.60;;;0.40;;
13566;SDS011;6855;48.112;11.298;2023-01-13T04:44:27;1.03;;;0.50;;
13566;SDS011;6855;48.112;11.298;2023-01-13T04:46:59;0.90;;;0.50;;
13566;SDS011;6855;48.112;11.298;2023-01-13T04:49:26;1.43;;;0.60;;
13566;SDS011;6855;48.112;11.298;2023-01-13T04:51:53;0.70;;;0.70;;
13566;SDS011;6855;48.112;11.298;2023-01-13T04:54:20;0.80;;;0.60;;
13566;SDS011;6855;48.112;11.298;2023-01-13T04:56:48;0.60;;;0.50;;
13566;SDS011;6855;48.112;11.298;2023-01-13T04:59:15;1.30;;;0.80;;
13566;SDS011;6855;48.112;11.298;2023-01-13T05:01:43;1.17;;;0.70;;
13566;SDS011;6855;48.112;11.298;2023-01-13T05:04:10;2.20;;;0.60;;
13566;SDS011;6855;48.112;11.298;2023-01-13T05:06:39;0.70;;;0.60;;
13566;SDS011;6855;48.112;11.298;2023-01-13T05:09:07;1.43;;;0.70;;
13566;SDS011;6855;48.112;11.298;2023-01-13T05:11:35;0.70;;;0.50;;
13566;SDS011;6855;48.112;11.298;2023-01-13T05:14:20;0.90;;;0.60;;
13566;SDS011;6855;48.112;11.298;2023-01-13T05:17:07;0.90;;;0.50;;
13566;SDS011;6855;48.112;11.298;2023-01-13T05:19:35;0.97;;;0.73;;
13566;SDS011;6855;48.112;11.298;2023-01-13T05:22:04;0.50;;;0.50;;
13566;SDS011;6855;48.112;11.298;2023-01-13T05:24:53;0.50;;;0.50;;
13566;SDS011;6855;48.112;11.298;2023-01-13T05:27:38;0.70;;;0.70;;
13566;SDS011;6855;48.112;11.298;2023-01-13T05:30:07;1.20;;;0.67;;
13566;SDS011;6855;48.112;11.298;2023-01-13T05:32:36;0.63;;;0.60;;
13566;SDS011;6855;48.112;11.298;2023-01-13T05:35:03;0.60;;;0.53;;
13566;SDS011;6855;48.112;11.298;2023-01-13T05:37:30;0.83;;;0.60;;
13566;SDS011;6855;48.112;11.298;2023-01-13T05:39:58;1.73;;;0.63;;
13566;SDS011;6855;48.112;11.298;2023-01-13T05:42:42;1.13;;;0.50;;
13566;SDS011;6855;48.112;11.298;2023-01-13T05:45:28;1.60;;;0.53;;
13566;SDS011;6855;48.112;11.298;2023-01-13T05:47:57;0.70;;;0.60;;
13566;SDS011;6855;48.112;11.298;2023-01-13T05:50:24;0.60;;;0.60;;
13566;SDS011;6855;48.112;11.298;2023-01-13T05:52:51;3.80;;;0.50;;
13566;SDS011;6855;48.112;11.298;2023-01-13T05:55:19;0.80;;;0.60;;
13566;SDS011;6855;48.112;11.298;2023-01-13T05:57:46;0.90;;;0.60;;
13566;SDS011;6855;48.112;11.298;2023-01-13T06:00:13;0.90;;;0.50;;
13566;SDS011;6855;48.112;11.298;2023-01-13T06:02:41;0.57;;;0.57;;
13566;SDS011;6855;48.112;11.298;2023-01-13T06:05:09;0.70;;;0.60;;
13566;SDS011;6855;48.112;11.298;2023-01-13T06:07:36;0.93;;;0.57;;
13566;SDS011;6855;48.112;11.298;2023-01-13T06:10:04;0.80;;;0.57;;
13566;SDS011;6855;48.112;11.298;2023-01-13T06:12:31;0.50;;;0.40;;
13566;SDS011;6855;48.112;11.298;2023-01-13T06:14:58;0.60;;;0.50;;
13566;SDS011;6855;48.112;11.298;2023-01-13T06:17:25;0.90;;;0.57;;
13566;SDS011;6855;48.112;11.298;2023-01-13T06:19:53;1.80;;;0.67;;
13566;SDS011;6855;48.112;11.298;2023-01-13T06:22:22;1.33;;;0.80;;
13566;SDS011;6855;48.112;11.298;2023-01-13T06:24:50;2.67;;;0.50;;
13566;SDS011;6855;48.112;11.298;2023-01-13T06:27:19;0.60;;;0.50;;
13566;SDS011;6855;48.112;11.298;2023-01-13T06:29:46;1.00;;;0.60;;
13566;SDS011;6855;48.112;11.298;2023-01-13T06:32:14;0.80;;;0.60;;
13566;SDS011;6855;48.112;11.298;2023-01-13T06:34:42;1.33;;;0.80;;
13566;SDS011;6855;48.112;11.298;2023-01-13T06:37:10;0.73;;;0.60;;
13566;SDS011;6855;48.112;11.298;2023-01-13T06:39:40;0.90;;;0.50;;
13566;SDS011;6855;48.112;11.298;2023-01-13T06:42:08;0.60;;;0.60;;
13566;SDS011;6855;48.112;11.298;2023-01-13T06:44:49;3.40;;;0.60;;
13566;SDS011;6855;48.112;11.298;2023-01-13T06:47:17;4.93;;;0.70;;
13566;SDS011;6855;48.112;11.298;2023-01-13T06:49:46;0.73;;;0.60;;
13566;SDS011;6855;48.112;11.298;2023-01-13T06:52:13;1.30;;;0.60;;
13566;SDS011;6855;48.112;11.298;2023-01-13T06:54:42;1.53;;;0.67;;
13566;SDS011;6855;48.112;11.298;2023-01-13T06:57:09;3.03;;;0.73;;
13566;SDS011;6855;48.112;11.298;2023-01-13T06:59:36;1.67;;;0.50;;
13566;SDS011;6855;48.112;11.298;2023-01-13T07:02:03;1.53;;;0.60;;
13566;SDS011;6855;48.112;11.298;2023-01-13T07:04:30;2.20;;;0.50;;
13566;SDS011;6855;48.112;11.298;2023-01-13T07:06:58;0.77;;;0.60;;
13566;SDS011;6855;48.112;11.298;2023-01-13T07:09:25;2.07;;;0.70;;
13566;SDS011;6855;48.112;11.298;2023-01-13T07:11:54;3.23;;;0.50;;
13566;SDS011;6855;48.112;11.298;2023-01-13T07:14:21;0.70;;;0.53;;
13566;SDS011;6855;48.112;11.298;2023-01-13T07:17:14;1.07;;;0.70;;
13566;SDS011;6855;48.112;11.298;2023-01-13T07:19:49;0.90;;;0.60;;
13566;SDS011;6855;48.112;11.298;2023-01-13T07:22:16;0.80;;;0.57;;
13566;SDS011;6855;48.112;11.298;2023-01-13T07:24:43;0.73;;;0.60;;
13566;SDS011;6855;48.112;11.298;2023-01-13T07:27:12;1.53;;;0.60;;
13566;SDS011;6855;48.112;11.298;2023-01-13T07:29:39;0.93;;;0.70;;
13566;SDS011;6855;48.112;11.298;2023-01-13T07:32:07;1.40;;;0.80;;
13566;SDS011;6855;48.112;11.298;2023-01-13T07:34:35;1.63;;;0.53;;
13566;SDS011;6855;48.112;11.298;2023-01-13T07:37:02;1.70;;;0.70;;
13566;SDS011;6855;48.112;11.298;2023-01-13T07:39:29;2.10;;;0.70;;
13566;SDS011;6855;48.112;11.298;2023-01-13T07:41:56;2.10;;;0.60;;
13566;SDS011;6855;48.112;11.298;2023-01-13T07:44:45;1.70;;;0.60;;
13566;SDS011;6855;48.112;11.298;2023-01-13T07:47:12;2.80;;;0.70;;
13566;SDS011;6855;48.112;11.298;2023-01-13T07:49:39;0.70;;;0.60;;
13566;SDS011;6855;48.112;11.298;2023-01-13T07:52:06;0.70;;;0.60;;
13566;SDS011;6855;48.112;11.298;2023-01-13T07:54:33;1.03;;;0.70;;
13566;SDS011;6855;48.112;11.298;2023-01-13T07:57:01;1.33;;;0.70;;
13566;SDS011;6855;48.112;11.298;2023-01-13T07:59:28;0.80;;;0.60;;
13566;SDS011;6855;48.112;11.298;2023-01-13T08:01:57;1.80;;;0.70;;
13566;SDS011;6855;48.112;11.298;2023-01-13T08:04:24;1.00;;;0.60;;
13566;SDS011;6855;48.112;11.298;2023-01-13T08:06:51;1.00;;;0.63;;
13566;SDS011;6855;48.112;11.298;2023-01-13T08:09:18;1.30;;;0.70;;
13566;SDS011;6855;48.112;11.298;2023-01-13T08:11:45;1.83;;;0.70;;
13566;SDS011;6855;48.112;11.298;2023-01-13T08:14:33;0.90;;;0.70;;
13566;SDS011;6855;48.112;11.298;2023-01-13T08:17:01;1.70;;;0.60;;
13566;SDS011;6855;48.112;11.298;2023-01-13T08:19:28;0.70;;;0.60;;
13566;SDS011;6855;48.112;11.298;2023-01-13T08:21:56;1.53;;;0.70;;
13566;SDS011;6855;48.112;11.298;2023-01-13T08:24:23;0.60;;;0.50;;
13566;SDS011;6855;48.112;11.298;2023-01-13T08:26:50;5.03;;;1.53;;
13566;SDS011;6855;48.112;11.298;2023-01-13T08:29:17;0.50;;;0.50;;
13566;SDS011;6855;48.112;11.298;2023-01-13T08:31:44;0.60;;;0.60;;
13566;SDS011;6855;48.112;11.298;2023-01-13T08:34:13;0.70;;;0.60;;
13566;SDS011;6855;48.112;11.298;2023-01-13T08:36:40;0.80;;;0.70;;
13566;SDS011;6855;48.112;11.298;2023-01-13T08:39:07;1.03;;;0.60;;
13566;SDS011;6855;48.112;11.298;2023-01-13T08:41:34;1.33;;;0.50;;
13566;SDS011;6855;48.112;11.298;2023-01-13T08:44:20;1.10;;;0.70;;
13566;SDS011;6855;48.112;11.298;2023-01-13T08:46:47;1.07;;;0.60;;
13566;SDS011;6855;48.112;11.298;2023-01-13T08:49:16;1.83;;;0.77;;
13566;SDS011;6855;48.112;11.298;2023-01-13T08:51:43;3.90;;;0.83;;
13566;SDS011;6855;48.112;11.298;2023-01-13T08:54:11;1.27;;;0.70;;
13566;SDS011;6855;48.112;11.298;2023-01-13T08:56:39;1.03;;;0.50;;
13566;SDS011;6855;48.112;11.298;2023-01-13T08:59:07;0.60;;;0.60;;
13566;SDS011;6855;48.112;11.298;2023-01-13T09:01:35;1.00;;;0.80;;
13566;SDS011;6855;48.112;11.298;2023-01-13T09:04:03;0.60;;;0.50;;
13566;SDS011;6855;48.112;11.298;2023-01-13T09:06:31;1.93;;;0.70;;
13566;SDS011;6855;48.112;11.298;2023-01-13T09:08:59;1.03;;;0.60;;
13566;SDS011;6855;48.112;11.298;2023-01-13T09:11:29;1.70;;;0.87;;
13566;SDS011;6855;48.112;11.298;2023-01-13T09:14:18;1.70;;;0.77;;
13566;SDS011;6855;48.112;11.298;2023-01-13T09:16:45;1.23;;;0.60;;
13566;SDS011;6855;48.112;11.298;2023-01-13T09:19:13;1.43;;;0.60;;
13566;SDS011;6855;48.112;11.298;2023-01-13T09:21:41;1.30;;;0.83;;
13566;SDS011;6855;48.112;11.298;2023-01-13T09:24:08;0.67;;;0.60;;
13566;SDS011;6855;48.112;11.298;2023-01-13T09:26:36;4.83;;;0.70;;
13566;SDS011;6855;48.112;11.298;2023-01-13T09:29:03;2.03;;;0.70;;
13566;SDS011;6855;48.112;11.298;2023-01-13T09:31:30;3.23;;;0.60;;
13566;SDS011;6855;48.112;11.298;2023-01-13T09:33:58;3.23;;;0.80;;
13566;SDS011;6855;48.112;11.298;2023-01-13T09:36:44;0.80;;;0.50;;
13566;SDS011;6855;48.112;11.298;2023-01-13T09:39:12;1.00;;;0.60;;
13566;SDS011;6855;48.112;11.298;2023-01-13T09:41:40;0.90;;;0.80;;
13566;SDS011;6855;48.112;11.298;2023-01-13T09:44:27;0.90;;;0.60;;
13566;SDS011;6855;48.112;11.298;2023-01-13T09:46:58;0.60;;;0.50;;
13566;SDS011;6855;48.112;11.298;2023-01-13T09:49:28;1.97;;;0.70;;
13566;SDS011;6855;48.112;11.298;2023-01-13T09:52:02;0.80;;;0.70;;
13566;SDS011;6855;48.112;11.298;2023-01-13T09:54:30;0.70;;;0.60;;
13566;SDS011;6855;48.112;11.298;2023-01-13T09:56:59;0.70;;;0.60;;
13566;SDS011;6855;48.112;11.298;2023-01-13T09:59:28;1.00;;;0.50;;
13566;SDS011;6855;48.112;11.298;2023-01-13T10:02:01;1.27;;;0.53;;
13566;SDS011;6855;48.112;11.298;2023-01-13T10:04:39;0.83;;;0.60;;
13566;SDS011;6855;48.112;11.298;2023-01-13T10:07:10;0.60;;;0.50;;
13566;SDS011;6855;48.112;11.298;2023-01-13T10:09:41;0.60;;;0.50;;
13566;SDS011;6855;48.112;11.298;2023-01-13T10:12:10;0.73;;;0.60;;
13566;SDS011;6855;48.112;11.298;2023-01-13T10:14:58;1.93;;;0.60;;
13566;SDS011;6855;48.112;11.298;2023-01-13T10:17:27;0.60;;;0.50;;
13566;SDS011;6855;48.112;11.298;2023-01-13T10:19:56;1.00;;;0.70;;
13566;SDS011;6855;48.112;11.298;2023-01-13T10:22:34;0.70;;;0.50;;
13566;SDS011;6855;48.112;11.298;2023-01-13T10:25:07;0.70;;;0.60;;
13566;SDS011;6855;48.112;11.298;2023-01-13T10:27:45;0.87;;;0.60;;
13566;SDS011;6855;48.112;11.298;2023-01-13T10:30:17;0.60;;;0.50;;
13566;SDS011;6855;48.112;11.298;2023-01-13T10:32:45;0.83;;;0.60;;
13566;SDS011;6855;48.112;11.298;2023-01-13T10:35:13;0.93;;;0.60;;
13566;SDS011;6855;48.112;11.298;2023-01-13T10:37:42;0.60;;;0.50;;
13566;SDS011;6855;48.112;11.298;2023-01-13T10:40:21;0.90;;;0.70;;
13566;SDS011;6855;48.112;11.298;2023-01-13T10:43:02;0.60;;;0.60;;
13566;SDS011;6855;48.112;11.298;2023-01-13T10:45:33;1.87;;;0.57;;
13566;SDS011;6855;48.112;11.298;2023-01-13T10:48:03;1.60;;;0.80;;
13566;SDS011;6855;48.112;11.298;2023-01-13T10:50:33;1.23;;;0.53;;
13566;SDS011;6855;48.112;11.298;2023-01-13T10:53:13;0.63;;;0.50;;
13566;SDS011;6855;48.112;11.298;2023-01-13T10:55:41;0.50;;;0.50;;
13566;SDS011;6855;48.112;11.298;2023-01-13T10:58:12;1.37;;;0.50;;
13566;SDS011;6855;48.112;11.298;2023-01-13T11:00:39;0.70;;;0.50;;
13566;SDS011;6855;48.112;11.298;2023-01-13T11:03:14;1.10;;;0.57;;
13566;SDS011;6855;48.112;11.298;2023-01-13T11:05:46;0.97;;;0.80;;
13566;SDS011;6855;48.112;11.298;2023-01-13T11:08:16;1.43;;;0.60;;
13566;SDS011;6855;48.112;11.298;2023-01-13T11:10:44;0.80;;;0.70;;
13566;SDS011;6855;48.112;11.298;2023-01-13T11:13:12;0.80;;;0.77;;
13566;SDS011;6855;48.112;11.298;2023-01-13T11:15:42;0.60;;;0.50;;
13566;SDS011;6855;48.112;11.298;2023-01-13T11:18:16;0.70;;;0.50;;
13566;SDS011;6855;48.112;11.298;2023-01-13T11:20:44;1.43;;;0.60;;
13566;SDS011;6855;48.112;11.298;2023-01-13T11:23:13;2.33;;;0.87;;
13566;SDS011;6855;48.112;11.298;2023-01-13T11:25:44;1.57;;;0.60;;
13566;SDS011;6855;48.112;11.298;2023-01-13T11:28:19;1.17;;;0.80;;
13566;SDS011;6855;48.112;11.298;2023-01-13T11:30:51;0.80;;;0.70;;
13566;SDS011;6855;48.112;11.298;2023-01-13T11:33:25;1.20;;;0.87;;
13566;SDS011;6855;48.112;11.298;2023-01-13T11:35:57;1.50;;;0.70;;
13566;SDS011;6855;48.112;11.298;2023-01-13T11:38:28;2.43;;;0.83;;
13566;SDS011;6855;48.112;11.298;2023-01-13T11:41:00;2.23;;;0.80;;
13566;SDS011;6855;48.112;11.298;2023-01-13T11:43:31;2.00;;;0.60;;
13566;SDS011;6855;48.112;11.298;2023-01-13T11:46:01;0.80;;;0.57;;
13566;SDS011;6855;48.112;11.298;2023-01-13T11:48:29;0.97;;;0.70;;
13566;SDS011;6855;48.112;11.298;2023-01-13T11:50:59;1.37;;;0.70;;
13566;SDS011;6855;48.112;11.298;2023-01-13T11:53:34;0.60;;;0.50;;
13566;SDS011;6855;48.112;11.298;2023-01-13T11:56:07;0.90;;;0.53;;
13566;SDS011;6855;48.112;11.298;2023-01-13T11:58:53;0.93;;;0.67;;
13566;SDS011;6855;48.112;11.298;2023-01-13T12:01:28;0.80;;;0.60;;
13566;SDS011;6855;48.112;11.298;2023-01-13T12:04:06;0.60;;;0.60;;
13566;SDS011;6855;48.112;11.298;2023-01-13T12:06:36;1.70;;;0.60;;
13566;SDS011;6855;48.112;11.298;2023-01-13T12:09:20;0.87;;;0.57;;
13566;SDS011;6855;48.112;11.298;2023-01-13T12:11:53;0.50;;;0.50;;
13566;SDS011;6855;48.112;11.298;2023-01-13T12:14:42;0.90;;;0.70;;
13566;SDS011;6855;48.112;11.298;2023-01-13T12:17:14;0.80;;;0.63;;
13566;SDS011;6855;48.112;11.298;2023-01-13T12:19:42;1.27;;;0.60;;
13566;SDS011;6855;48.112;11.298;2023-01-13T12:22:12;1.43;;;0.60;;
13566;SDS011;6855;48.112;11.298;2023-01-13T12:24:45;10.40;;;0.70;;
13566;SDS011;6855;48.112;11.298;2023-01-13T12:27:17;1.13;;;0.70;;
13566;SDS011;6855;48.112;11.298;2023-01-13T12:29:45;0.60;;;0.60;;
13566;SDS011;6855;48.112;11.298;2023-01-13T12:32:13;0.60;;;0.60;;
13566;SDS011;6855;48.112;11.298;2023-01-13T12:34:50;1.13;;;0.60;;
13566;SDS011;6855;48.112;11.298;2023-01-13T12:37:20;2.60;;;0.90;;
13566;SDS011;6855;48.112;11.298;2023-01-13T12:39:54;0.70;;;0.60;;
13566;SDS011;6855;48.112;11.298;2023-01-13T12:42:27;2.70;;;0.60;;
13566;SDS011;6855;48.112;11.298;2023-01-13T12:45:25;3.17;;;0.87;;
13566;SDS011;6855;48.112;11.298;2023-01-13T12:47:53;0.77;;;0.60;;
13566;SDS011;6855;48.112;11.298;2023-01-13T12:50:39;0.67;;;0.60;;
13566;SDS011;6855;48.112;11.298;2023-01-13T12:55:52;0.90;;;0.80;;
13566;SDS011;6855;48.112;11.298;2023-01-13T12:58:25;0.70;;;0.57;;
13566;SDS011;6855;48.112;11.298;2023-01-13T13:00:57;5.43;;;0.80;;
13566;SDS011;6855;48.112;11.298;2023-01-13T13:03:31;1.30;;;0.80;;
13566;SDS011;6855;48.112;11.298;2023-01-13T13:06:03;1.13;;;0.60;;
13566;SDS011;6855;48.112;11.298;2023-01-13T13:08:57;1.60;;;0.77;;
13566;SDS011;6855;48.112;11.298;2023-01-13T13:11:35;1.07;;;0.70;;
13566;SDS011;6855;48.112;11.298;2023-01-13T13:20:01;1.33;;;0.60;;
13566;SDS011;6855;48.112;11.298;2023-01-13T13:22:41;0.87;;;0.60;;
13566;SDS011;6855;48.112;11.298;2023-01-13T13:25:20;1.83;;;0.80;;
13566;SDS011;6855;48.112;11.298;2023-01-13T13:27:49;2.90;;;0.80;;
13566;SDS011;6855;48.112;11.298;2023-01-13T13:30:18;2.93;;;0.60;;
13566;SDS011;6855;48.112;11.298;2023-01-13T13:32:54;1.00;;;0.70;;
13566;SDS011;6855;48.112;11.298;2023-01-13T13:35:36;0.63;;;0.60;;
13566;SDS011;6855;48.112;11.298;2023-01-13T13:38:10;0.90;;;0.60;;
13566;SDS011;6855;48.112;11.298;2023-01-13T13:40:57;0.80;;;0.70;;
13566;SDS011;6855;48.112;11.298;2023-01-13T13:43:42;1.47;;;0.57;;
13566;SDS011;6855;48.112;11.298;2023-01-13T13:46:28;1.00;;;0.70;;
13566;SDS011;6855;48.112;11.298;2023-01-13T13:49:14;2.53;;;0.70;;
13566;SDS011;6855;48.112;11.298;2023-01-13T13:51:44;0.93;;;0.83;;
13566;SDS011;6855;48.112;11.298;2023-01-13T13:54:14;1.70;;;0.60;;
13566;SDS011;6855;48.112;11.298;2023-01-13T13:56:43;1.33;;;0.93;;
13566;SDS011;6855;48.112;11.298;2023-01-13T13:59:11;0.90;;;0.60;;
13566;SDS011;6855;48.112;11.298;2023-01-13T14:01:39;1.90;;;0.60;;
13566;SDS011;6855;48.112;11.298;2023-01-13T14:04:10;1.10;;;0.57;;
13566;SDS011;6855;48.112;11.298;2023-01-13T14:06:40;0.60;;;0.50;;
13566;SDS011;6855;48.112;11.298;2023-01-13T14:09:16;4.73;;;0.73;;
13566;SDS011;6855;48.112;11.298;2023-01-13T14:11:52;1.00;;;0.50;;
13566;SDS011;6855;48.112;11.298;2023-01-13T14:14:20;0.90;;;0.63;;
13566;SDS011;6855;48.112;11.298;2023-01-13T14:16:47;0.80;;;0.70;;
13566;SDS011;6855;48.112;11.298;2023-01-13T14:19:21;1.27;;;0.70;;
13566;SDS011;6855;48.112;11.298;2023-01-13T14:21:50;2.40;;;0.70;;
13566;SDS011;6855;48.112;11.298;2023-01-13T14:24:20;0.70;;;0.60;;
13566;SDS011;6855;48.112;11.298;2023-01-13T14:26:49;1.30;;;0.83;;
13566;SDS011;6855;48.112;11.298;2023-01-13T14:29:18;0.97;;;0.80;;
13566;SDS011;6855;48.112;11.298;2023-01-13T14:31:46;0.50;;;0.50;;
13566;SDS011;6855;48.112;11.298;2023-01-13T14:34:14;2.20;;;0.80;;
13566;SDS011;6855;48.112;11.298;2023-01-13T14:36:41;0.60;;;0.50;;
13566;SDS011;6855;48.112;11.298;2023-01-13T14:39:32;0.90;;;0.63;;
13566;SDS011;6855;48.112;11.298;2023-01-13T14:42:00;1.30;;;0.70;;
13566;SDS011;6855;48.112;11.298;2023-01-13T14:44:27;1.63;;;0.60;;
13566;SDS011;6855;48.112;11.298;2023-01-13T14:46:55;1.10;;;0.73;;
13566;SDS011;6855;48.112;11.298;2023-01-13T14:49:25;1.27;;;0.80;;
13566;SDS011;6855;48.112;11.298;2023-01-13T14:52:01;5.80;;;0.80;;
13566;SDS011;6855;48.112;11.298;2023-01-13T14:54:40;2.00;;;0.90;;
13566;SDS011;6855;48.112;11.298;2023-01-13T14:57:11;1.00;;;0.60;;
13566;SDS011;6855;48.112;11.298;2023-01-13T14:59:40;1.63;;;0.70;;
13566;SDS011;6855;48.112;11.298;2023-01-13T15:02:34;1.83;;;0.80;;
13566;SDS011;6855;48.112;11.298;2023-01-13T15:07:47;1.40;;;0.80;;
13566;SDS011;6855;48.112;11.298;2023-01-13T15:10:16;2.00;;;0.93;;
13566;SDS011;6855;48.112;11.298;2023-01-13T15:12:44;2.40;;;1.17;;
13566;SDS011;6855;48.112;11.298;2023-01-13T15:15:19;1.33;;;0.70;;
13566;SDS011;6855;48.112;11.298;2023-01-13T15:17:46;1.80;;;0.80;;
13566;SDS011;6855;48.112;11.298;2023-01-13T15:20:14;3.67;;;0.63;;
13566;SDS011;6855;48.112;11.298;2023-01-13T16:33:25;5.90;;;2.50;;
13566;SDS011;6855;48.112;11.298;2023-01-13T16:35:52;3.73;;;2.37;;
13566;SDS011;6855;48.112;11.298;2023-01-13T16:38:20;6.70;;;2.70;;
13566;SDS011;6855;48.112;11.298;2023-01-13T16:40:47;6.27;;;3.50;;